createdAt,value
2022-08-22T00:02:33.777Z,1.77
2022-08-22T00:02:58.815Z,1.08
2022-08-22T00:03:01.582Z,1.38
2022-08-22T00:05:23.343Z,0.55
2022-08-22T00:08:11.602Z,1.25
2022-08-22T00:11:08.863Z,1.30
2022-08-22T00:13:54.830Z,1.52
2022-08-22T00:16:57.954Z,0.88
2022-08-22T00:20:06.436Z,0.70
2022-08-22T00:22:47.749Z,0.63
2022-08-22T00:25:36.664Z,0.60
2022-08-22T00:28:15.735Z,0.75
2022-08-22T00:31:01.612Z,1.15
2022-08-22T00:33:41.891Z,1.40
2022-08-22T00:36:31.448Z,0.80
2022-08-22T00:39:25.070Z,1.58
2022-08-22T00:42:32.241Z,0.55
2022-08-22T00:45:49.281Z,0.85
2022-08-22T00:48:40.348Z,2.15
2022-08-22T00:51:17.424Z,2.15
2022-08-22T00:53:51.385Z,2.17
2022-08-22T00:56:31.037Z,0.55
2022-08-22T00:59:22.731Z,0.90
2022-08-22T01:02:29.393Z,1.48
2022-08-22T01:05:04.450Z,0.75
2022-08-22T01:07:52.504Z,0.77
2022-08-22T01:10:42.256Z,7.07
2022-08-22T01:13:32.341Z,0.80
2022-08-22T01:16:08.520Z,2.33
2022-08-22T01:18:43.394Z,1.10
2022-08-22T01:21:25.934Z,1.17
2022-08-22T01:31:28.972Z,1.00
2022-08-22T01:37:18.877Z,0.70
2022-08-22T01:40:31.174Z,0.70
2022-08-22T01:46:48.738Z,1.25
2022-08-22T02:01:02.451Z,0.80
2022-08-22T02:03:34.430Z,2.30
2022-08-22T02:06:17.543Z,1.92
2022-08-22T02:08:51.057Z,1.65
2022-08-22T02:14:06.680Z,3.85
2022-08-22T02:16:42.300Z,0.60
2022-08-22T02:19:16.532Z,1.30
2022-08-22T02:26:17.150Z,0.60
2022-08-22T02:29:02.090Z,1.58
2022-08-22T02:31:29.194Z,0.80
2022-08-22T02:33:57.690Z,2.05
2022-08-22T02:36:30.879Z,1.00
2022-08-22T02:39:32.474Z,0.52
2022-08-22T02:42:11.963Z,1.00
2022-08-22T02:44:41.362Z,1.40
2022-08-22T02:47:52.965Z,0.85
2022-08-22T02:50:54.828Z,0.50
2022-08-22T02:53:29.817Z,0.65
2022-08-22T02:56:17.989Z,1.75
2022-08-22T03:13:20.915Z,0.40
2022-08-22T03:16:01.497Z,0.57
2022-08-22T03:18:45.635Z,0.63
2022-08-22T03:21:22.198Z,0.60
2022-08-22T03:23:55.229Z,0.63
2022-08-22T03:26:41.398Z,0.57
2022-08-22T03:32:55.781Z,0.15
2022-08-22T04:05:07.007Z,0.22
2022-08-22T04:07:52.168Z,0.88
2022-08-22T04:28:12.862Z,0.17
2022-08-22T04:34:18.934Z,0.25
2022-08-22T04:36:58.231Z,0.20
2022-08-22T04:39:44.397Z,0.22
2022-08-22T04:42:52.750Z,0.52
2022-08-22T04:45:31.747Z,0.30
2022-08-22T04:48:26.236Z,0.20
2022-08-22T04:51:24.025Z,0.40
2022-08-22T05:00:05.949Z,0.20
2022-08-22T05:02:34.662Z,0.63
2022-08-22T05:08:20.212Z,0.20
2022-08-22T05:13:49.058Z,0.20
2022-08-22T05:16:43.822Z,1.77
2022-08-22T05:19:28.431Z,0.30
2022-08-22T05:28:14.892Z,0.45
2022-08-22T05:30:52.900Z,1.10
2022-08-22T05:33:27.728Z,0.73
2022-08-22T05:36:03.497Z,1.77
2022-08-22T05:38:33.497Z,0.40
2022-08-22T05:41:12.192Z,0.40
2022-08-22T05:43:44.345Z,0.30
2022-08-22T05:46:48.489Z,1.35
2022-08-22T05:52:42.950Z,1.75
2022-08-22T05:55:33.370Z,0.77
2022-08-22T05:58:19.582Z,1.48
2022-08-22T06:00:51.769Z,1.60
2022-08-22T06:03:31.357Z,0.32
2022-08-22T06:06:01.239Z,0.50
2022-08-22T06:08:42.224Z,1.85
2022-08-22T06:11:23.822Z,0.82
2022-08-22T06:14:13.012Z,0.80
2022-08-22T06:16:55.642Z,7.25
2022-08-22T06:19:45.415Z,2.33
2022-08-22T06:22:20.265Z,4.00
2022-08-22T06:24:56.393Z,1.27
2022-08-22T06:27:32.507Z,1.00
2022-08-22T06:32:59.083Z,2.22
2022-08-22T06:35:57.353Z,7.00
2022-08-22T07:10:10.478Z,3.42
2022-08-22T07:12:39.309Z,1.95
2022-08-22T07:15:32.660Z,2.50
2022-08-22T07:18:01.756Z,2.22
2022-08-22T07:20:32.314Z,9.90
2022-08-22T07:23:02.315Z,4.95
2022-08-22T07:25:29.528Z,5.38
2022-08-22T07:33:56.798Z,5.03
2022-08-22T07:36:31.486Z,4.75
2022-08-22T07:39:05.427Z,4.03
2022-08-22T07:42:13.792Z,1.00
2022-08-22T07:44:53.271Z,1.25
2022-08-22T07:47:26.263Z,3.65
2022-08-22T07:52:21.008Z,1.60
2022-08-22T07:58:21.608Z,4.15
2022-08-22T08:04:21.727Z,0.85
2022-08-22T08:06:51.039Z,2.17
2022-08-22T08:09:18.835Z,2.17
2022-08-22T08:15:25.897Z,2.42
2022-08-22T08:26:09.778Z,15.25
2022-08-22T08:28:44.372Z,19.65
2022-08-22T08:31:16.845Z,13.75
2022-08-22T08:50:24.545Z,4.70
2022-08-22T09:16:51.919Z,5.20
2022-08-22T09:19:52.164Z,4.90
2022-08-22T09:28:05.230Z,4.83
2022-08-22T09:29:55.438Z,4.32
2022-08-22T09:33:06.523Z,6.75
2022-08-22T09:36:26.808Z,5.90
2022-08-22T09:39:05.914Z,10.35
2022-08-22T09:41:57.454Z,9.48
2022-08-22T09:44:55.530Z,11.93
2022-08-22T09:47:39.261Z,8.32
2022-08-22T09:51:04.870Z,5.45
2022-08-22T09:55:16.243Z,11.23
2022-08-22T09:57:47.003Z,5.22
2022-08-22T10:00:25.750Z,6.63
2022-08-22T10:02:59.255Z,8.50
2022-08-22T10:05:40.729Z,3.08
2022-08-22T10:08:19.674Z,2.60
2022-08-22T10:11:11.590Z,4.57
2022-08-22T10:14:00.739Z,3.60
2022-08-22T10:17:21.742Z,4.85
2022-08-22T10:19:58.567Z,4.95
2022-08-22T10:22:55.474Z,6.47
2022-08-22T10:25:48.389Z,5.05
2022-08-22T10:28:17.983Z,5.03
2022-08-22T10:31:07.618Z,4.05
2022-08-22T10:34:20.479Z,3.83
2022-08-22T10:37:24.361Z,2.30
2022-08-22T10:40:08.117Z,3.13
2022-08-22T10:42:59.199Z,3.97
2022-08-22T10:45:36.269Z,5.15
2022-08-22T10:48:10.420Z,5.95
2022-08-22T10:50:42.983Z,5.90
2022-08-22T10:53:39.024Z,5.47
2022-08-22T10:56:27.591Z,2.97
2022-08-22T10:59:22.757Z,4.57
2022-08-22T11:02:13.090Z,7.50
2022-08-22T11:05:26.359Z,8.32
2022-08-22T11:08:35.327Z,6.93
2022-08-22T11:11:16.855Z,3.65
2022-08-22T11:14:10.803Z,4.93
2022-08-22T11:16:55.400Z,4.20
2022-08-22T11:19:32.085Z,4.50
2022-08-22T11:22:36.617Z,4.07
2022-08-22T11:25:38.579Z,4.22
2022-08-22T11:28:30.024Z,4.82
2022-08-22T11:36:08.162Z,4.88
2022-08-22T11:38:40.027Z,4.65
2022-08-22T11:41:19.188Z,7.20
2022-08-22T11:44:36.533Z,9.25
2022-08-22T11:47:18.461Z,5.57
2022-08-22T11:49:51.619Z,6.40
2022-08-22T11:52:43.666Z,4.93
2022-08-22T11:55:22.488Z,6.50
2022-08-22T11:57:56.524Z,6.43
2022-08-22T12:00:45.311Z,4.95
2022-08-22T12:03:18.305Z,4.05
2022-08-22T12:06:19.085Z,4.20
2022-08-22T12:22:07.159Z,5.65
2022-08-22T12:25:11.781Z,5.55
2022-08-22T12:28:03.635Z,4.13
2022-08-22T12:36:17.939Z,4.65
2022-08-22T12:40:52.023Z,5.13
2022-08-22T12:43:39.948Z,4.38
2022-08-22T12:46:30.197Z,5.43
2022-08-22T12:49:31.680Z,4.95
2022-08-22T12:52:31.182Z,5.07
2022-08-22T12:55:52.871Z,3.65
2022-08-22T12:58:57.028Z,4.07
2022-08-22T13:04:33.392Z,3.10
2022-08-22T13:07:37.236Z,4.75
2022-08-22T13:10:32.354Z,4.32
2022-08-22T13:13:56.767Z,4.82
2022-08-22T13:16:49.138Z,4.22
2022-08-22T13:19:25.593Z,3.58
2022-08-22T13:22:20.442Z,3.72
2022-08-22T13:25:04.867Z,3.83
2022-08-22T13:27:51.394Z,5.00
2022-08-22T13:30:43.751Z,3.38
2022-08-22T13:33:48.241Z,3.92
2022-08-22T13:36:22.618Z,3.78
2022-08-22T13:39:27.736Z,4.15
2022-08-22T13:42:14.535Z,5.25
2022-08-22T13:47:40.546Z,3.53
2022-08-22T13:50:19.560Z,3.33
2022-08-22T13:52:55.102Z,4.65
2022-08-22T13:55:31.935Z,4.20
2022-08-22T13:58:13.457Z,3.92
2022-08-22T14:00:58.913Z,3.90
2022-08-22T14:03:40.116Z,4.00
2022-08-22T14:06:44.078Z,5.85
2022-08-22T14:09:41.601Z,5.82
2022-08-22T14:12:22.206Z,5.68
2022-08-22T14:15:03.119Z,4.97
2022-08-22T14:17:42.808Z,6.95
2022-08-22T14:20:32.463Z,4.15
2022-08-22T14:23:26.924Z,5.22
2022-08-22T14:25:57.181Z,4.20
2022-08-22T14:28:34.019Z,5.25
2022-08-22T14:31:13.496Z,4.65
2022-08-22T14:34:12.446Z,5.30
2022-08-22T14:36:48.861Z,3.97
2022-08-22T14:39:27.345Z,5.20
2022-08-22T14:42:12.073Z,4.35
2022-08-22T14:44:54.824Z,4.25
2022-08-22T14:47:54.588Z,7.93
2022-08-22T14:50:45.964Z,5.40
2022-08-22T14:59:50.165Z,6.35
2022-08-22T15:02:30.261Z,4.57
2022-08-22T15:05:06.157Z,4.32
2022-08-22T15:07:38.110Z,6.22
2022-08-22T15:10:33.195Z,6.15
2022-08-22T15:13:03.913Z,4.07
2022-08-22T15:15:52.824Z,5.25
2022-08-22T15:18:30.141Z,3.83
2022-08-22T15:21:29.566Z,7.70
2022-08-22T15:24:13.363Z,5.18
2022-08-22T15:27:15.581Z,5.40
2022-08-22T15:30:22.887Z,6.90
2022-08-22T15:33:14.298Z,4.22
2022-08-22T15:35:44.500Z,4.13
2022-08-22T15:38:54.143Z,3.90
2022-08-22T15:41:41.115Z,3.28
2022-08-22T15:44:32.094Z,4.43
2022-08-22T15:47:10.819Z,3.45
2022-08-22T15:49:52.632Z,5.25
2022-08-22T15:52:27.961Z,3.50
2022-08-22T15:54:58.639Z,2.97
2022-08-22T15:57:42.006Z,4.57
2022-08-22T16:00:33.983Z,2.40
2022-08-22T16:03:23.599Z,4.15
2022-08-22T16:05:55.584Z,3.47
2022-08-22T16:08:40.351Z,3.33
2022-08-22T16:11:16.988Z,3.50
2022-08-22T16:14:41.992Z,3.05
2022-08-22T16:21:02.469Z,5.57
2022-08-22T16:30:00.119Z,3.90
2022-08-22T16:32:35.229Z,3.35
2022-08-22T16:35:02.447Z,3.40
2022-08-22T16:37:50.130Z,4.45
2022-08-22T16:40:25.780Z,3.28
2022-08-22T16:43:16.093Z,4.78
2022-08-22T16:45:48.812Z,6.43
2022-08-22T16:48:45.499Z,5.65
2022-08-22T16:51:19.921Z,5.53
2022-08-22T16:54:09.806Z,4.75
2022-08-22T16:56:57.754Z,6.38
2022-08-22T16:59:52.054Z,5.93
2022-08-22T17:02:38.244Z,5.85
2022-08-22T17:08:50.144Z,6.55
2022-08-22T17:16:52.114Z,4.75
2022-08-22T17:19:56.401Z,4.55
2022-08-22T17:26:16.955Z,3.33
2022-08-22T17:29:08.080Z,3.50
2022-08-22T17:32:24.045Z,3.65
2022-08-22T17:35:17.038Z,3.95
2022-08-22T17:37:59.435Z,3.35
2022-08-22T17:40:38.585Z,3.80
2022-08-22T17:43:49.034Z,4.97
2022-08-22T17:46:58.331Z,4.13
2022-08-22T17:49:57.914Z,11.25
2022-08-22T17:52:46.368Z,3.55
2022-08-22T17:59:50.935Z,5.32
2022-08-22T18:50:58.028Z,4.68
2022-08-22T18:53:53.545Z,6.18
2022-08-22T18:56:40.257Z,5.50
2022-08-22T19:00:08.171Z,5.95
2022-08-22T19:02:55.718Z,5.60
2022-08-22T19:22:19.490Z,5.88
2022-08-22T19:25:08.877Z,7.40
2022-08-22T19:27:41.828Z,6.00
2022-08-22T19:30:35.231Z,7.43
2022-08-22T19:33:56.048Z,8.20
2022-08-22T19:36:42.978Z,6.18
2022-08-22T19:39:11.578Z,10.35
2022-08-22T19:41:59.974Z,10.20
2022-08-22T19:44:40.381Z,9.70
2022-08-22T19:47:21.895Z,8.27
2022-08-22T19:50:15.700Z,7.80
2022-08-22T19:53:14.793Z,7.13
2022-08-22T19:56:03.932Z,6.88
2022-08-22T19:58:49.221Z,7.38
2022-08-22T20:01:29.589Z,8.10
2022-08-22T20:04:11.331Z,8.20
2022-08-22T20:06:44.296Z,7.85
2022-08-22T20:09:58.315Z,6.55
2022-08-22T20:12:47.036Z,8.38
2022-08-22T20:15:20.069Z,8.05
2022-08-22T20:18:11.557Z,8.18
2022-08-22T20:20:38.619Z,9.65
2022-08-22T20:23:15.319Z,7.80
2022-08-22T20:25:51.942Z,8.13
2022-08-22T20:28:32.555Z,9.05
2022-08-22T20:31:11.667Z,6.22
2022-08-22T20:33:50.830Z,8.65
2022-08-22T20:36:27.633Z,7.10
2022-08-22T20:39:06.762Z,7.28
2022-08-22T20:41:43.623Z,9.73
2022-08-22T20:44:35.484Z,8.30
2022-08-22T20:47:12.830Z,8.00
2022-08-22T20:50:02.045Z,8.52
2022-08-22T20:56:25.189Z,7.65
2022-08-22T21:05:41.763Z,8.95
2022-08-22T21:22:34.508Z,7.60
2022-08-22T21:39:33.612Z,8.23
2022-08-22T21:49:28.024Z,9.80
2022-08-22T21:52:04.837Z,7.20
2022-08-22T21:54:43.462Z,7.10
2022-08-22T21:57:21.556Z,7.05
2022-08-22T22:00:00.066Z,7.15
2022-08-22T22:02:37.624Z,8.75
2022-08-22T22:05:10.067Z,9.52
2022-08-22T22:07:43.194Z,6.68
2022-08-22T22:10:12.621Z,6.93
2022-08-22T22:12:43.583Z,8.35
2022-08-22T22:15:15.278Z,9.65
2022-08-22T22:17:44.514Z,7.80
2022-08-22T22:20:15.643Z,9.43
2022-08-22T22:22:43.300Z,10.00
2022-08-22T22:25:40.156Z,6.90
2022-08-22T22:28:07.182Z,9.27
2022-08-22T22:30:37.080Z,8.27
2022-08-22T22:33:04.628Z,9.23
2022-08-22T22:35:32.137Z,7.72
2022-08-22T22:37:59.565Z,8.95
2022-08-22T22:40:27.869Z,6.57
2022-08-22T22:42:56.050Z,10.73
2022-08-22T22:45:25.961Z,7.85
2022-08-22T22:47:55.466Z,10.18
2022-08-22T22:50:23.358Z,8.60
2022-08-22T22:52:54.065Z,7.80
2022-08-22T22:55:25.277Z,7.93
2022-08-22T22:57:59.254Z,6.75
2022-08-22T23:00:30.682Z,9.23
2022-08-22T23:03:02.296Z,6.57
2022-08-22T23:05:30.785Z,8.80
2022-08-22T23:07:58.218Z,9.60
2022-08-22T23:10:26.586Z,6.68
2022-08-22T23:12:54.587Z,7.75
2022-08-22T23:15:21.860Z,9.73
2022-08-22T23:17:49.435Z,7.88
2022-08-22T23:20:16.949Z,6.72
2022-08-22T23:22:45.417Z,6.50
2022-08-22T23:25:12.928Z,8.65
2022-08-22T23:27:40.342Z,8.07
2022-08-22T23:30:10.965Z,7.03
2022-08-22T23:32:39.115Z,7.03
2022-08-22T23:35:06.996Z,8.77
2022-08-22T23:37:34.303Z,9.82
2022-08-22T23:40:01.844Z,9.73
2022-08-22T23:42:30.383Z,8.35
2022-08-22T23:45:02.499Z,8.27
2022-08-22T23:47:31.794Z,8.32
2022-08-22T23:50:05.885Z,7.63
2022-08-22T23:52:35.014Z,7.05
2022-08-22T23:55:14.099Z,9.60
2022-08-22T23:57:51.009Z,6.70
